createdAt,value
2018-12-06T00:01:48.807Z,100161.22
2018-12-06T00:04:17.284Z,100162.59
2018-12-06T00:06:45.615Z,100160.70
2018-12-06T00:09:13.973Z,100158.23
2018-12-06T00:11:42.357Z,100157.92
2018-12-06T00:14:10.685Z,100156.69
2018-12-06T00:16:39.549Z,100156.23
2018-12-06T00:19:10.355Z,100153.59
2018-12-06T00:21:38.896Z,100153.97
2018-12-06T00:24:07.544Z,100144.70
2018-12-06T00:26:35.858Z,100154.66
2018-12-06T00:29:04.290Z,100142.56
2018-12-06T00:31:32.597Z,100148.93
2018-12-06T00:34:01.238Z,100144.66
2018-12-06T00:36:29.612Z,100146.98
2018-12-06T00:38:58.684Z,100138.09
2018-12-06T00:41:27.113Z,100138.27
2018-12-06T00:43:56.120Z,100135.83
2018-12-06T00:46:24.473Z,100128.02
2018-12-06T00:48:52.844Z,100130.23
2018-12-06T00:51:21.228Z,100127.33
2018-12-06T00:53:49.598Z,100131.02
2018-12-06T00:56:17.932Z,100124.55
2018-12-06T00:58:46.362Z,100126.31
2018-12-06T01:01:14.709Z,100135.72
2018-12-06T01:03:43.124Z,100132.52
2018-12-06T01:06:11.499Z,100125.98
2018-12-06T01:08:39.769Z,100126.13
2018-12-06T01:11:08.088Z,100133.20
2018-12-06T01:13:36.382Z,100134.91
2018-12-06T01:16:04.687Z,100134.39
2018-12-06T01:18:33.008Z,100132.83
2018-12-06T01:21:01.508Z,100134.22
2018-12-06T01:23:29.788Z,100134.28
2018-12-06T01:25:58.302Z,100138.13
2018-12-06T01:28:26.636Z,100131.39
2018-12-06T01:30:54.923Z,100130.39
2018-12-06T01:33:23.264Z,100124.72
2018-12-06T01:35:51.632Z,100121.04
2018-12-06T01:38:20.038Z,100128.45
2018-12-06T01:40:48.426Z,100129.72
2018-12-06T01:43:16.883Z,100125.80
2018-12-06T01:45:45.195Z,100121.91
2018-12-06T01:48:13.621Z,100117.50
2018-12-06T01:50:41.911Z,100110.34
2018-12-06T01:53:10.237Z,100109.09
2018-12-06T01:55:38.545Z,100106.34
2018-12-06T01:58:06.940Z,100104.00
2018-12-06T02:00:35.258Z,100101.86
2018-12-06T02:03:03.717Z,100098.14
2018-12-06T02:05:32.096Z,100093.52
2018-12-06T02:08:00.391Z,100088.47
2018-12-06T02:10:28.781Z,100078.26
2018-12-06T02:12:57.131Z,100067.03
2018-12-06T02:15:25.594Z,100066.19
2018-12-06T02:17:54.193Z,100067.37
2018-12-06T02:20:22.720Z,100071.95
2018-12-06T02:22:51.041Z,100064.08
2018-12-06T02:25:19.339Z,100062.66
2018-12-06T02:27:47.645Z,100068.63
2018-12-06T02:30:15.969Z,100070.20
2018-12-06T02:32:44.241Z,100068.27
2018-12-06T02:35:16.612Z,100065.52
2018-12-06T02:37:45.009Z,100058.22
2018-12-06T02:40:13.338Z,100053.08
2018-12-06T02:42:41.819Z,100055.95
2018-12-06T02:45:10.539Z,100046.86
2018-12-06T02:47:38.841Z,100045.08
2018-12-06T02:50:07.337Z,100052.36
2018-12-06T02:52:35.760Z,100058.59
2018-12-06T02:55:04.320Z,100054.98
2018-12-06T02:57:32.662Z,100059.58
2018-12-06T03:00:01.019Z,100060.38
2018-12-06T03:02:29.541Z,100054.95
2018-12-06T03:04:57.860Z,100049.64
2018-12-06T03:07:26.438Z,100044.55
2018-12-06T03:09:55.123Z,100042.28
2018-12-06T03:12:23.597Z,100039.06
2018-12-06T03:14:51.919Z,100039.20
2018-12-06T03:17:20.223Z,100038.16
2018-12-06T03:19:48.505Z,100039.27
2018-12-06T03:22:16.805Z,100033.55
2018-12-06T03:24:45.091Z,100032.66
2018-12-06T03:27:13.882Z,100026.98
2018-12-06T03:29:42.343Z,100016.05
2018-12-06T03:32:11.496Z,100014.33
2018-12-06T03:34:39.777Z,100015.66
2018-12-06T03:37:08.293Z,100013.37
2018-12-06T03:39:36.604Z,100017.66
2018-12-06T03:42:04.930Z,100020.52
2018-12-06T03:47:38.251Z,100035.29
2018-12-06T03:50:06.705Z,100042.89
2018-12-06T03:52:35.630Z,100032.80
2018-12-06T03:55:04.085Z,100033.02
2018-12-06T03:57:32.398Z,100041.99
2018-12-06T04:00:00.784Z,100039.63
2018-12-06T04:02:29.116Z,100032.89
2018-12-06T04:04:57.564Z,100025.59
2018-12-06T04:07:25.967Z,100038.10
2018-12-06T04:09:54.285Z,100041.86
2018-12-06T04:12:22.599Z,100041.98
2018-12-06T04:14:51.018Z,100052.94
2018-12-06T04:17:19.404Z,100048.45
2018-12-06T04:19:47.704Z,100048.25
2018-12-06T04:22:16.150Z,100045.84
2018-12-06T04:24:44.540Z,100046.50
2018-12-06T04:27:12.851Z,100041.56
2018-12-06T04:29:41.173Z,100046.17
2018-12-06T04:32:09.464Z,100050.30
2018-12-06T04:34:37.797Z,100051.48
2018-12-06T04:37:06.083Z,100052.81
2018-12-06T04:39:34.432Z,100049.88
2018-12-06T04:42:02.748Z,100046.84
2018-12-06T04:44:31.297Z,100052.88
2018-12-06T04:46:59.802Z,100045.16
2018-12-06T04:49:28.204Z,100034.55
2018-12-06T04:51:56.562Z,100027.78
2018-12-06T04:54:24.892Z,100016.40
2018-12-06T04:56:53.212Z,100007.94
2018-12-06T04:59:21.554Z,99993.08
2018-12-06T05:01:49.846Z,99995.13
2018-12-06T05:04:18.555Z,100016.84
2018-12-06T05:06:46.852Z,100021.59
2018-12-06T05:09:15.153Z,100028.30
2018-12-06T05:11:43.457Z,100027.80
2018-12-06T05:14:11.748Z,100023.32
2018-12-06T05:16:40.337Z,100010.13
2018-12-06T05:19:09.108Z,100013.14
2018-12-06T05:21:37.554Z,100024.09
2018-12-06T05:24:05.866Z,100028.82
2018-12-06T05:26:34.231Z,100027.05
2018-12-06T05:29:02.847Z,100035.02
2018-12-06T05:31:31.185Z,100042.28
2018-12-06T05:33:59.483Z,100040.14
2018-12-06T05:36:27.764Z,100038.10
2018-12-06T05:38:56.078Z,100043.11
2018-12-06T05:41:24.398Z,100052.50
2018-12-06T05:43:52.721Z,100044.42
2018-12-06T05:46:21.077Z,100043.92
2018-12-06T05:48:49.376Z,100038.03
2018-12-06T05:51:17.754Z,100038.49
2018-12-06T05:53:46.080Z,100049.00
2018-12-06T05:56:14.435Z,100051.77
2018-12-06T05:58:42.881Z,100060.16
2018-12-06T06:01:11.474Z,100064.59
2018-12-06T06:03:40.452Z,100060.55
2018-12-06T06:06:08.748Z,100076.73
2018-12-06T06:08:37.343Z,100072.68
2018-12-06T07:20:26.886Z,100129.52
2018-12-06T07:22:55.256Z,100138.81
2018-12-06T07:25:23.680Z,100146.36
2018-12-06T07:27:52.780Z,100151.39
2018-12-06T07:30:21.084Z,100153.63
2018-12-06T07:32:49.448Z,100151.51
2018-12-06T07:35:17.836Z,100151.14
2018-12-06T07:37:46.937Z,100147.25
2018-12-06T07:40:15.363Z,100147.33
2018-12-06T07:42:43.709Z,100147.10
2018-12-06T07:45:12.041Z,100149.15
2018-12-06T07:47:40.393Z,100138.39
2018-12-06T07:50:09.845Z,100143.64
2018-12-06T07:52:38.221Z,100143.72
2018-12-06T07:55:07.474Z,100138.21
2018-12-06T07:57:36.494Z,100147.19
2018-12-06T08:00:08.501Z,100149.96
2018-12-06T08:02:36.993Z,100152.61
2018-12-06T08:05:06.074Z,100158.57
2018-12-06T08:07:34.619Z,100163.02
2018-12-06T08:10:02.969Z,100159.68
2018-12-06T08:12:31.384Z,100165.71
2018-12-06T08:14:59.920Z,100172.03
2018-12-06T08:17:28.228Z,100173.29
2018-12-06T08:19:56.555Z,100172.27
2018-12-06T08:22:24.944Z,100171.41
2018-12-06T08:24:53.262Z,100162.56
2018-12-06T08:27:21.558Z,100163.08
2018-12-06T08:29:50.585Z,100170.34
2018-12-06T08:32:18.900Z,100171.45
2018-12-06T08:34:47.245Z,100174.91
2018-12-06T08:37:15.573Z,100165.33
2018-12-06T08:39:43.935Z,100163.63
2018-12-06T08:42:12.283Z,100166.49
2018-12-06T08:44:40.860Z,100160.89
2018-12-06T08:47:09.201Z,100159.47
2018-12-06T08:49:37.741Z,100156.82
2018-12-06T08:52:06.140Z,100143.48
2018-12-06T08:54:34.584Z,100140.62
2018-12-06T08:57:03.085Z,100149.29
2018-12-06T08:59:31.404Z,100156.13
2018-12-06T09:01:59.989Z,100152.23
2018-12-06T09:04:28.704Z,100163.38
2018-12-06T09:06:57.131Z,100164.61
2018-12-06T09:09:25.682Z,100158.67
2018-12-06T09:11:54.279Z,100154.28
2018-12-06T09:14:22.765Z,100158.26
2018-12-06T09:16:51.183Z,100152.86
2018-12-06T09:19:19.577Z,100153.47
2018-12-06T09:21:47.924Z,100155.11
2018-12-06T09:24:16.603Z,100166.23
2018-12-06T09:26:45.077Z,100167.78
2018-12-06T09:29:13.485Z,100165.73
2018-12-06T09:31:42.469Z,100166.95
2018-12-06T09:34:10.801Z,100167.45
2018-12-06T09:36:39.317Z,100176.32
2018-12-06T09:39:08.493Z,100170.30
2018-12-06T09:41:37.672Z,100176.02
2018-12-06T09:44:06.049Z,100172.06
2018-12-06T09:46:34.575Z,100174.39
2018-12-06T09:49:03.120Z,100162.95
2018-12-06T09:51:31.504Z,100174.90
2018-12-06T09:53:59.896Z,100176.44
2018-12-06T09:56:28.288Z,100175.52
2018-12-06T09:58:57.160Z,100174.09
2018-12-06T10:01:25.629Z,100170.52
2018-12-06T10:03:54.613Z,100164.91
2018-12-06T10:06:22.931Z,100162.36
2018-12-06T10:08:51.300Z,100161.20
2018-12-06T10:11:19.620Z,100153.27
2018-12-06T10:13:48.024Z,100158.89
2018-12-06T10:16:16.358Z,100150.30
2018-12-06T10:18:45.050Z,100147.14
2018-12-06T10:21:13.332Z,100146.94
2018-12-06T10:23:41.667Z,100149.80
2018-12-06T10:26:10.047Z,100150.69
2018-12-06T10:28:39.146Z,100144.58
2018-12-06T10:31:07.582Z,100147.62
2018-12-06T10:33:35.938Z,100149.06
2018-12-06T10:36:04.275Z,100148.47
2018-12-06T10:38:32.867Z,100144.19
2018-12-06T10:41:01.193Z,100137.30
2018-12-06T10:43:30.385Z,100138.34
2018-12-06T10:45:58.729Z,100146.38
2018-12-06T10:48:27.060Z,100140.02
2018-12-06T10:54:17.052Z,100152.60
2018-12-06T10:56:45.424Z,100147.86
2018-12-06T10:59:13.774Z,100139.75
2018-12-06T11:01:50.640Z,100139.97
2018-12-06T11:04:19.153Z,100140.78
2018-12-06T11:06:47.625Z,100143.77
2018-12-06T11:09:16.239Z,100147.27
2018-12-06T11:11:44.680Z,100146.75
2018-12-06T11:14:13.055Z,100149.11
2018-12-06T11:16:41.385Z,100144.84
2018-12-06T11:19:09.757Z,100146.23
2018-12-06T11:21:38.231Z,100154.58
2018-12-06T11:24:06.547Z,100156.98
2018-12-06T11:26:34.954Z,100162.30
2018-12-06T11:29:03.396Z,100162.89
2018-12-06T11:31:31.787Z,100152.54
2018-12-06T11:34:00.647Z,100153.61
2018-12-06T11:36:28.978Z,100154.36
2018-12-06T11:38:57.347Z,100143.28
2018-12-06T11:41:25.690Z,100144.12
2018-12-06T11:43:54.184Z,100146.25
2018-12-06T11:46:22.838Z,100147.76
2018-12-06T11:48:51.500Z,100144.52
2018-12-06T11:51:20.206Z,100143.89
2018-12-06T11:53:48.604Z,100150.23
2018-12-06T11:56:16.944Z,100152.00
2018-12-06T11:58:45.312Z,100150.58
2018-12-06T12:01:13.663Z,100143.77
2018-12-06T12:03:42.797Z,100133.08
2018-12-06T12:06:11.137Z,100135.23
2018-12-06T12:08:39.599Z,100146.05
2018-12-06T12:11:08.157Z,100144.77
2018-12-06T12:13:36.594Z,100147.14
2018-12-06T12:16:04.993Z,100149.97
2018-12-06T12:18:33.382Z,100142.27
2018-12-06T12:21:02.090Z,100136.71
2018-12-06T12:23:30.553Z,100137.25
2018-12-06T12:25:58.859Z,100125.96
2018-12-06T12:28:27.236Z,100128.03
2018-12-06T12:30:56.111Z,100123.30
2018-12-06T12:33:24.542Z,100117.87
2018-12-06T12:35:52.909Z,100130.18
2018-12-06T12:38:21.779Z,100129.66
2018-12-06T12:40:50.380Z,100135.27
2018-12-06T12:43:18.719Z,100137.98
2018-12-06T12:45:47.769Z,100138.51
2018-12-06T12:48:16.085Z,100136.02
2018-12-06T12:50:44.475Z,100138.67
2018-12-06T12:53:13.356Z,100134.73
2018-12-06T12:55:41.861Z,100133.98
2018-12-06T12:58:10.887Z,100130.29
2018-12-06T13:00:39.258Z,100135.61
2018-12-06T13:03:07.565Z,100130.39
2018-12-06T13:05:35.990Z,100133.40
2018-12-06T13:08:04.314Z,100143.98
2018-12-06T13:10:32.634Z,100151.45
2018-12-06T13:13:01.782Z,100154.47
2018-12-06T13:15:30.402Z,100159.75
2018-12-06T13:17:59.697Z,100159.25
2018-12-06T13:20:28.332Z,100157.30
2018-12-06T13:22:57.112Z,100153.73
2018-12-06T13:25:25.599Z,100152.36
2018-12-06T13:27:53.976Z,100146.23
2018-12-06T13:30:22.507Z,100149.48
2018-12-06T13:32:50.967Z,100147.77
2018-12-06T13:35:19.327Z,100156.65
2018-12-06T13:37:47.741Z,100152.16
2018-12-06T13:40:16.076Z,100151.37
2018-12-06T13:42:44.443Z,100157.61
2018-12-06T13:45:13.082Z,100156.77
2018-12-06T13:47:41.542Z,100143.12
2018-12-06T13:50:09.894Z,100134.30
2018-12-06T13:52:38.212Z,100133.16
2018-12-06T13:55:06.782Z,100142.11
2018-12-06T13:57:35.424Z,100139.26
2018-12-06T14:00:04.686Z,100123.61
2018-12-06T14:02:33.002Z,100124.23
2018-12-06T14:05:02.386Z,100127.89
2018-12-06T14:07:31.578Z,100125.43
2018-12-06T14:09:59.918Z,100133.22
2018-12-06T14:12:28.255Z,100144.42
2018-12-06T14:14:57.326Z,100142.18
2018-12-06T14:17:26.543Z,100150.42
2018-12-06T14:19:54.889Z,100151.53
2018-12-06T14:22:23.972Z,100146.73
2018-12-06T14:24:52.322Z,100156.92
2018-12-06T14:27:20.738Z,100159.64
2018-12-06T14:29:49.141Z,100160.88
2018-12-06T14:32:17.678Z,100155.23
2018-12-06T14:34:46.059Z,100146.44
2018-12-06T14:37:14.423Z,100143.28
2018-12-06T14:39:42.774Z,100142.67
2018-12-06T14:42:11.107Z,100148.77
2018-12-06T14:44:39.993Z,100157.02
2018-12-06T14:47:08.467Z,100150.10
2018-12-06T14:49:36.844Z,100144.68
2018-12-06T14:52:05.628Z,100148.63
2018-12-06T14:54:33.961Z,100153.58
2018-12-06T14:57:02.332Z,100162.25
2018-12-06T14:59:30.672Z,100159.88
2018-12-06T15:01:59.015Z,100167.73
2018-12-06T15:04:27.355Z,100168.06
2018-12-06T15:06:55.744Z,100164.81
2018-12-06T15:09:24.313Z,100170.01
2018-12-06T15:11:52.658Z,100169.03
2018-12-06T15:14:21.995Z,100165.79
2018-12-06T15:16:50.517Z,100169.10
2018-12-06T15:19:18.859Z,100173.34
2018-12-06T15:21:47.208Z,100174.66
2018-12-06T15:24:15.597Z,100167.34
2018-12-06T15:26:50.112Z,100169.78
2018-12-06T15:29:18.493Z,100174.39
2018-12-06T15:31:47.503Z,100172.06
2018-12-06T15:34:15.826Z,100174.66
2018-12-06T15:36:44.133Z,100177.90
2018-12-06T15:39:12.528Z,100183.91
2018-12-06T15:41:41.582Z,100183.52
2018-12-06T15:44:10.203Z,100185.53
2018-12-06T15:46:38.655Z,100194.23
2018-12-06T15:49:07.005Z,100186.08
2018-12-06T15:51:35.319Z,100187.38
2018-12-06T15:54:03.641Z,100186.34
2018-12-06T15:56:32.071Z,100192.45
2018-12-06T15:59:00.652Z,100189.20
2018-12-06T16:01:29.310Z,100196.13
2018-12-06T16:03:57.654Z,100182.77
2018-12-06T16:06:26.032Z,100180.56
2018-12-06T16:08:55.172Z,100172.80
2018-12-06T16:11:23.548Z,100162.18
2018-12-06T16:13:52.537Z,100154.84
2018-12-06T16:16:20.893Z,100166.01
2018-12-06T16:18:49.325Z,100160.07
2018-12-06T16:21:17.801Z,100159.58
2018-12-06T16:23:46.364Z,100157.08
2018-12-06T16:26:14.846Z,100156.20
2018-12-06T16:28:43.150Z,100151.63
2018-12-06T16:31:12.514Z,100145.56
2018-12-06T16:33:40.896Z,100138.05
2018-12-06T16:36:09.611Z,100130.46
2018-12-06T16:38:37.955Z,100129.13
2018-12-06T16:41:06.305Z,100130.48
2018-12-06T16:43:34.601Z,100139.88
2018-12-06T16:46:03.698Z,100145.59
2018-12-06T16:48:32.090Z,100152.77
2018-12-06T16:51:00.986Z,100152.61
2018-12-06T16:53:29.276Z,100161.24
2018-12-06T16:55:57.601Z,100163.42
2018-12-06T16:58:25.908Z,100162.73
2018-12-06T17:00:54.281Z,100163.06
2018-12-06T17:03:23.230Z,100161.16
2018-12-06T17:05:51.807Z,100152.73
2018-12-06T17:08:20.777Z,100162.63
2018-12-06T17:10:49.072Z,100166.73
2018-12-06T17:13:17.436Z,100167.73
2018-12-06T17:15:45.775Z,100173.74
2018-12-06T17:18:14.335Z,100172.06
2018-12-06T17:20:42.850Z,100153.09
2018-12-06T17:23:11.184Z,100148.09
2018-12-06T17:25:39.495Z,100139.83
2018-12-06T17:28:07.789Z,100136.41
2018-12-06T17:30:36.127Z,100132.92
2018-12-06T17:33:05.136Z,100132.20
2018-12-06T17:35:33.498Z,100131.82
2018-12-06T17:38:01.887Z,100129.77
2018-12-06T17:40:30.458Z,100131.16
2018-12-06T17:42:59.036Z,100133.28
2018-12-06T17:45:27.423Z,100134.33
2018-12-06T17:47:55.796Z,100135.20
2018-12-06T17:50:24.173Z,100130.56
2018-12-06T17:52:52.583Z,100141.69
2018-12-06T17:55:20.963Z,100133.92
2018-12-06T17:57:49.447Z,100142.34
2018-12-06T18:00:17.911Z,100138.92
2018-12-06T18:02:46.256Z,100133.86
2018-12-06T18:07:49.257Z,100117.79
2018-12-06T18:10:18.827Z,100118.14
2018-12-06T18:12:47.185Z,100115.20
2018-12-06T18:15:16.007Z,100114.02
2018-12-06T18:17:44.417Z,100106.70
2018-12-06T18:20:12.894Z,100109.88
2018-12-06T18:22:41.246Z,100114.02
2018-12-06T18:25:09.550Z,100108.13
2018-12-06T18:27:38.131Z,100102.99
2018-12-06T18:30:09.711Z,100118.96
2018-12-06T18:32:38.127Z,100111.16
2018-12-06T18:35:06.837Z,100113.86
2018-12-06T18:37:35.167Z,100117.12
2018-12-06T18:40:04.141Z,100122.97
2018-12-06T18:42:32.512Z,100119.56
2018-12-06T18:45:00.841Z,100118.91
2018-12-06T18:47:29.191Z,100121.03
2018-12-06T18:49:57.494Z,100122.25
2018-12-06T18:52:25.828Z,100123.46
2018-12-06T18:54:54.197Z,100122.66
2018-12-06T18:57:22.869Z,100116.92
2018-12-06T18:59:51.181Z,100125.50
2018-12-06T19:02:19.803Z,100120.95
2018-12-06T19:04:48.793Z,100124.55
2018-12-06T19:07:17.108Z,100128.36
2018-12-06T19:09:45.649Z,100124.97
2018-12-06T19:12:14.577Z,100112.31
2018-12-06T19:14:43.004Z,100108.56
2018-12-06T19:17:11.964Z,100109.47
2018-12-06T19:19:40.325Z,100111.28
2018-12-06T19:22:08.625Z,100114.45
2018-12-06T19:24:36.978Z,100111.46
2018-12-06T19:27:05.921Z,100102.14
2018-12-06T19:29:34.312Z,100105.13
2018-12-06T19:32:02.624Z,100106.30
2018-12-06T19:34:30.954Z,100102.00
2018-12-06T19:36:59.639Z,100100.86
2018-12-06T19:39:27.991Z,100110.23
2018-12-06T19:41:56.395Z,100102.47
2018-12-06T19:44:24.876Z,100096.53
2018-12-06T19:46:53.744Z,100094.02
2018-12-06T19:49:22.131Z,100091.47
2018-12-06T19:51:50.922Z,100096.50
2018-12-06T19:54:19.979Z,100087.02
2018-12-06T19:56:48.375Z,100076.95
2018-12-06T19:59:16.692Z,100082.20
2018-12-06T20:01:45.189Z,100070.75
2018-12-06T20:04:13.596Z,100068.17
2018-12-06T20:06:41.976Z,100069.55
2018-12-06T20:09:10.408Z,100061.84
2018-12-06T20:11:38.789Z,100059.23
2018-12-06T20:14:07.134Z,100067.04
2018-12-06T20:16:35.552Z,100065.02
2018-12-06T20:19:03.936Z,100067.98
2018-12-06T20:21:32.509Z,100069.78
2018-12-06T20:24:00.898Z,100069.99
2018-12-06T20:26:29.686Z,100063.03
2018-12-06T20:29:01.076Z,100060.08
2018-12-06T20:31:30.083Z,100060.52
2018-12-06T20:33:59.388Z,100061.87
2018-12-06T20:36:27.961Z,100047.59
2018-12-06T20:39:03.416Z,100036.78
2018-12-06T20:41:33.969Z,100022.35
2018-12-06T20:44:02.957Z,100029.97
2018-12-06T20:46:31.400Z,100029.02
2018-12-06T20:49:00.411Z,100030.48
2018-12-06T20:51:28.827Z,100027.75
2018-12-06T20:53:57.334Z,100020.52
2018-12-06T20:56:26.041Z,100025.92
2018-12-06T20:58:54.406Z,100026.80
2018-12-06T21:01:22.979Z,100020.75
2018-12-06T21:03:51.922Z,100022.31
2018-12-06T21:06:20.218Z,100011.51
2018-12-06T21:08:48.634Z,100019.73
2018-12-06T21:11:17.736Z,100018.75
2018-12-06T21:13:46.074Z,100007.37
2018-12-06T21:16:14.440Z,100001.42
2018-12-06T21:18:43.471Z,100010.09
2018-12-06T21:21:11.897Z,100002.42
2018-12-06T21:23:40.392Z,100007.34
2018-12-06T21:26:08.950Z,100014.09
2018-12-06T21:28:37.249Z,100011.36
2018-12-06T21:31:05.664Z,100017.41
2018-12-06T21:33:34.054Z,100012.31
2018-12-06T21:36:02.370Z,100011.18
2018-12-06T21:38:30.867Z,100013.93
2018-12-06T21:40:59.228Z,100010.07
2018-12-06T21:43:27.753Z,100001.79
2018-12-06T21:45:56.094Z,100001.33
2018-12-06T21:48:24.459Z,99990.23
2018-12-06T21:50:52.816Z,99983.73
2018-12-06T21:53:21.163Z,99988.19
2018-12-06T21:55:49.858Z,99991.38
2018-12-06T21:58:18.160Z,99988.09
2018-12-06T22:00:46.563Z,99997.66
2018-12-06T22:03:14.908Z,99988.90
2018-12-06T22:05:43.211Z,99990.75
2018-12-06T22:08:11.985Z,99979.34
2018-12-06T22:10:40.296Z,99983.28
2018-12-06T22:13:08.703Z,99980.31
2018-12-06T22:15:37.316Z,99980.47
2018-12-06T22:18:05.621Z,99990.51
2018-12-06T22:20:34.064Z,99987.27
2018-12-06T22:23:02.475Z,99987.84
2018-12-06T22:25:30.785Z,99978.09
2018-12-06T22:27:59.167Z,99977.56
2018-12-06T22:30:27.467Z,99971.13
2018-12-06T22:32:55.818Z,99973.16
2018-12-06T22:35:24.492Z,99973.52
2018-12-06T22:37:52.895Z,99980.94
2018-12-06T22:40:21.208Z,99982.09
2018-12-06T22:42:49.548Z,99973.66
2018-12-06T22:48:32.949Z,99975.03
2018-12-06T22:51:01.349Z,99967.48
2018-12-06T22:53:30.264Z,99977.52
2018-12-06T22:55:58.617Z,99975.16
2018-12-06T22:58:27.034Z,99974.87
2018-12-06T23:00:56.431Z,99972.20
2018-12-06T23:03:25.033Z,99974.28
2018-12-06T23:05:53.538Z,99979.32
2018-12-06T23:08:21.965Z,99965.29
2018-12-06T23:10:50.559Z,99972.66
2018-12-06T23:13:18.881Z,99964.24
2018-12-06T23:15:47.326Z,99964.06
2018-12-06T23:18:15.631Z,99975.54
2018-12-06T23:20:44.229Z,99975.14
2018-12-06T23:23:12.805Z,99974.69
2018-12-06T23:25:41.400Z,99978.92
2018-12-06T23:28:09.858Z,99970.92
2018-12-06T23:30:38.189Z,99972.34
2018-12-06T23:33:06.633Z,99966.44
2018-12-06T23:35:35.447Z,99970.59
2018-12-06T23:38:03.834Z,99963.77
2018-12-06T23:40:32.690Z,99961.83
2018-12-06T23:43:01.017Z,99957.55
2018-12-06T23:45:29.439Z,99949.27
2018-12-06T23:47:58.522Z,99932.53
2018-12-06T23:50:26.885Z,99928.09
2018-12-06T23:52:55.591Z,99925.02
2018-12-06T23:55:24.002Z,99935.95
2018-12-06T23:57:52.485Z,99937.42
